Time;durP1;ratioP1;P1;durP2;ratioP2;P2;SDS_P1;SDS_P2;PMS_P1;PMS_P2;Temp;Humidity;BMP_temperature;BMP_pressure;BME280_temperature;BME280_humidity;BME280_pressure;Samples;Min_cycle;Max_cycle;Signal;HPM_P1;HPM_P2
2023/03/30 00:00:12;;;;;;;7.45;4.28;;;19.20;46.40;;;;;;5016033;28;20204;-58
2023/03/30 00:02:43;;;;;;;8.18;4.43;;;19.20;46.50;;;;;;5016032;28;20290;-58
2023/03/30 00:05:12;;;;;;;6.07;4.15;;;19.20;46.50;;;;;;5015952;28;20227;-58
2023/03/30 00:07:41;;;;;;;6.57;4.32;;;19.20;46.60;;;;;;5015900;28;20723;-58
2023/03/30 00:10:09;;;;;;;9.88;4.28;;;19.20;46.60;;;;;;5015973;28;20345;-58
2023/03/30 00:12:37;;;;;;;7.85;4.20;;;19.20;46.70;;;;;;5033768;28;20184;-58
2023/03/30 00:15:06;;;;;;;7.05;4.53;;;19.20;46.70;;;;;;5015704;28;20224;-58
2023/03/30 00:17:33;;;;;;;7.00;3.85;;;19.20;46.70;;;;;;5033851;28;20215;-58
2023/03/30 00:20:05;;;;;;;7.28;3.95;;;19.20;46.70;;;;;;5053091;22;20649;-83
2023/03/30 00:22:33;;;;;;;7.93;4.55;;;19.20;46.80;;;;;;5055058;28;20195;-83
2023/03/30 00:25:00;;;;;;;7.82;4.70;;;19.20;47.40;;;;;;5037169;28;20215;-83
2023/03/30 00:27:27;;;;;;;8.02;4.15;;;19.20;46.80;;;;;;5037130;28;20221;-83
2023/03/30 00:29:54;;;;;;;9.18;4.43;;;19.20;46.70;;;;;;5036986;28;20196;-83
2023/03/30 00:32:22;;;;;;;7.20;3.63;;;19.20;47.40;;;;;;5038846;28;20246;-83
2023/03/30 00:34:49;;;;;;;8.20;4.47;;;19.20;47.30;;;;;;5021864;28;20200;-83
2023/03/30 00:37:17;;;;;;;6.95;4.22;;;19.20;46.70;;;;;;5037655;28;20301;-83
2023/03/30 00:39:46;;;;;;;10.05;4.20;;;19.20;46.70;;;;;;5022458;28;20199;-83
2023/03/30 00:42:15;;;;;;;9.07;4.32;;;19.20;46.80;;;;;;5021038;28;20223;-83
2023/03/30 00:45:21;;;;;;;7.30;3.97;;;19.20;46.80;;;;;;5037944;28;20199;-82
2023/03/30 00:47:51;;;;;;;5.70;4.03;;;19.20;46.80;;;;;;5037595;28;20326;-83
2023/03/30 00:50:20;;;;;;;7.88;4.32;;;19.20;46.80;;;;;;5053995;28;20255;-83
2023/03/30 00:52:48;;;;;;;8.10;3.92;;;19.20;46.90;;;;;;5059569;28;20195;-83
2023/03/30 00:55:16;;;;;;;8.68;4.45;;;19.20;46.80;;;;;;5056803;28;20615;-83
2023/03/30 00:57:44;;;;;;;6.00;3.80;;;19.20;46.80;;;;;;5042690;28;20215;-83
2023/03/30 01:00:13;;;;;;;8.48;4.15;;;19.20;46.80;;;;;;5040983;28;20195;-82
2023/03/30 01:02:42;;;;;;;10.10;3.95;;;19.10;46.70;;;;;;5040861;28;20223;-82
2023/03/30 01:05:10;;;;;;;8.07;3.88;;;19.20;46.90;;;;;;5041557;28;20530;-83
2023/03/30 01:07:38;;;;;;;7.80;3.92;;;19.20;46.90;;;;;;5041269;28;20254;-82
2023/03/30 01:10:07;;;;;;;7.53;4.22;;;19.10;46.80;;;;;;5040796;28;20192;-83
2023/03/30 01:12:36;;;;;;;6.70;3.97;;;19.10;46.90;;;;;;5040548;28;20191;-83
2023/03/30 01:15:06;;;;;;;6.85;3.92;;;19.10;46.90;;;;;;5040733;28;20199;-82
2023/03/30 01:17:38;;;;;;;5.45;3.78;;;19.10;47.00;;;;;;5046777;28;20219;-83
2023/03/30 01:20:50;;;;;;;8.00;4.00;;;19.10;47.00;;;;;;5049043;28;20722;-82
2023/03/30 01:23:42;;;;;;;9.48;4.00;;;19.10;47.20;;;;;;5006155;28;20227;-83
2023/03/30 01:26:42;;;;;;;6.95;3.72;;;19.10;47.70;;;;;;5044798;28;20582;-83
2023/03/30 01:29:15;;;;;;;5.72;3.58;;;19.10;47.20;;;;;;5009368;28;20634;-82
2023/03/30 01:31:59;;;;;;;6.20;3.78;;;19.10;47.20;;;;;;5040586;28;20649;-83
2023/03/30 01:34:57;;;;;;;5.63;3.53;;;19.10;47.30;;;;;;5039886;28;20199;-82
2023/03/30 01:38:00;;;;;;;5.82;3.45;;;19.10;47.30;;;;;;5021274;28;20211;-83
2023/03/30 01:40:30;;;;;;;5.88;3.53;;;19.10;47.30;;;;;;5040824;28;20207;-83
2023/03/30 01:43:00;;;;;;;6.35;4.20;;;19.10;47.40;;;;;;5040070;28;20211;-83
2023/03/30 01:45:31;;;;;;;6.07;3.90;;;19.10;47.50;;;;;;5039795;28;20207;-83
2023/03/30 01:47:59;;;;;;;5.50;4.03;;;19.10;47.50;;;;;;5023594;28;20257;-82
2023/03/30 01:50:30;;;;;;;8.88;4.07;;;19.10;47.40;;;;;;5040578;28;20259;-83
2023/03/30 01:52:59;;;;;;;7.35;4.35;;;19.00;47.30;;;;;;5039692;28;20194;-83
2023/03/30 01:55:30;;;;;;;5.70;3.95;;;19.00;47.40;;;;;;5023065;28;20192;-83
2023/03/30 01:57:59;;;;;;;6.70;4.15;;;19.00;47.40;;;;;;5039787;28;20293;-83
2023/03/30 02:00:27;;;;;;;5.90;4.05;;;19.00;47.40;;;;;;5039338;28;20230;-83
2023/03/30 02:02:55;;;;;;;7.68;3.60;;;19.00;47.40;;;;;;5039048;28;20736;-83
2023/03/30 02:05:23;;;;;;;6.93;4.20;;;19.00;47.50;;;;;;5039495;28;20199;-82
2023/03/30 02:07:52;;;;;;;6.13;3.60;;;19.00;47.50;;;;;;5039292;28;20269;-83
2023/03/30 02:10:21;;;;;;;6.72;4.10;;;19.00;47.60;;;;;;5023156;28;20199;-83
2023/03/30 02:12:50;;;;;;;7.03;3.65;;;19.00;47.70;;;;;;5039189;28;20195;-83
2023/03/30 02:15:17;;;;;;;6.95;4.28;;;19.00;47.90;;;;;;5039500;28;20584;-83
2023/03/30 02:17:46;;;;;;;9.77;3.92;;;19.00;47.70;;;;;;5039298;28;20246;-83
2023/03/30 02:20:16;;;;;;;7.00;4.20;;;19.00;47.60;;;;;;5038535;28;20302;-83
2023/03/30 02:22:44;;;;;;;5.75;3.42;;;19.00;47.70;;;;;;5038759;28;20686;-83
2023/03/30 02:25:11;;;;;;;7.35;3.70;;;19.00;47.80;;;;;;5038886;28;20210;-83
2023/03/30 02:27:40;;;;;;;7.50;3.40;;;19.00;47.80;;;;;;5038836;28;20223;-83
2023/03/30 02:30:10;;;;;;;6.13;3.60;;;19.00;47.90;;;;;;5038609;28;20646;-83
2023/03/30 02:32:41;;;;;;;7.30;3.67;;;19.00;47.90;;;;;;5039470;28;20191;-83
2023/03/30 02:35:23;;;;;;;8.60;3.63;;;19.00;47.90;;;;;;5038851;28;20192;-83
2023/03/30 02:38:13;;;;;;;4.60;3.25;;;19.00;47.90;;;;;;5038853;28;20222;-82
2023/03/30 02:40:47;;;;;;;7.35;3.58;;;19.00;48.00;;;;;;5021235;28;20192;-83
2023/03/30 02:43:26;;;;;;;7.07;3.40;;;19.00;47.90;;;;;;5038952;28;20221;-83
2023/03/30 02:46:01;;;;;;;6.43;3.63;;;19.00;48.10;;;;;;5039656;28;20198;-83
2023/03/30 02:48:34;;;;;;;8.65;3.72;;;18.90;48.00;;;;;;5040349;28;20199;-82
2023/03/30 02:51:09;;;;;;;4.47;3.40;;;18.90;48.00;;;;;;5040040;28;20195;-83
2023/03/30 02:53:57;;;;;;;6.43;3.78;;;18.90;47.90;;;;;;5056847;28;20676;-83
2023/03/30 02:56:47;;;;;;;6.60;3.42;;;18.90;48.00;;;;;;5056310;28;20586;-83
2023/03/30 02:59:17;;;;;;;7.90;3.72;;;18.90;48.00;;;;;;5039709;28;20192;-83
2023/03/30 03:01:48;;;;;;;5.47;3.40;;;18.90;48.70;;;;;;5039283;28;20222;-83
2023/03/30 03:04:16;;;;;;;6.28;3.35;;;18.90;48.10;;;;;;5047785;28;20238;-83
2023/03/30 03:06:58;;;;;;;6.45;3.30;;;18.90;48.20;;;;;;5061569;28;20283;-84
2023/03/30 03:09:25;;;;;;;6.28;3.40;;;18.90;48.40;;;;;;5056650;28;20230;-83
2023/03/30 03:11:52;;;;;;;5.88;3.22;;;18.90;48.50;;;;;;5048134;28;20564;-84
2023/03/30 03:14:19;;;;;;;5.50;3.50;;;19.00;48.40;;;;;;5028382;28;20199;-83
2023/03/30 03:16:48;;;;;;;5.82;3.33;;;19.00;48.40;;;;;;5045095;28;20223;-83
2023/03/30 03:19:16;;;;;;;7.45;4.05;;;18.90;48.40;;;;;;5045029;28;20196;-83
2023/03/30 03:22:03;;;;;;;5.30;3.42;;;19.00;48.60;;;;;;5061190;28;20751;-83
2023/03/30 03:24:37;;;;;;;5.43;3.35;;;19.00;48.20;;;;;;5041260;28;20219;-84
2023/03/30 03:27:17;;;;;;;6.10;3.30;;;19.00;48.20;;;;;;5060447;28;20223;-83
2023/03/30 03:30:02;;;;;;;7.00;3.58;;;19.00;48.20;;;;;;5042600;28;20261;-83
2023/03/30 03:32:37;;;;;;;7.05;3.38;;;19.10;48.30;;;;;;5027220;28;20191;-83
2023/03/30 03:35:05;;;;;;;5.32;3.38;;;19.10;48.10;;;;;;5041690;28;20564;-83
2023/03/30 03:37:34;;;;;;;6.47;3.38;;;19.20;47.90;;;;;;5039611;28;20591;-83
2023/03/30 03:40:05;;;;;;;6.65;3.35;;;19.20;47.90;;;;;;5023307;28;20268;-82
2023/03/30 03:42:33;;;;;;;4.88;3.22;;;19.20;47.80;;;;;;5038884;28;20211;-83
2023/03/30 03:45:08;;;;;;;4.15;3.00;;;19.30;47.90;;;;;;5038876;28;20222;-83
2023/03/30 03:47:43;;;;;;;4.93;3.35;;;19.30;47.60;;;;;;5038454;28;20224;-83
2023/03/30 03:50:11;;;;;;;7.82;3.65;;;19.40;47.60;;;;;;5037327;28;20572;-83
2023/03/30 03:52:38;;;;;;;7.53;3.20;;;19.40;47.90;;;;;;5040781;28;20195;-82
2023/03/30 03:55:06;;;;;;;6.05;3.72;;;19.40;47.70;;;;;;5038148;28;20203;-83
2023/03/30 03:57:34;;;;;;;6.18;2.97;;;19.40;47.70;;;;;;5038600;28;20700;-82
2023/03/30 04:00:02;;;;;;;5.53;3.33;;;19.40;47.90;;;;;;5037557;28;20195;-83
2023/03/30 04:02:39;;;;;;;4.65;3.20;;;19.50;48.30;;;;;;5057328;28;20286;-83
2023/03/30 04:05:08;;;;;;;7.25;3.88;;;19.50;47.50;;;;;;5039312;28;20631;-83
2023/03/30 04:07:37;;;;;;;5.13;3.35;;;19.50;47.40;;;;;;5037764;28;20215;-83
2023/03/30 04:10:06;;;;;;;4.70;3.03;;;19.50;47.40;;;;;;5040744;28;20226;-82
2023/03/30 04:12:42;;;;;;;4.32;3.00;;;19.50;47.20;;;;;;5039606;28;20537;-83
2023/03/30 04:15:45;;;;;;;5.45;3.28;;;19.60;47.40;;;;;;5039150;28;20752;-84
2023/03/30 04:18:33;;;;;;;6.72;3.45;;;19.60;47.20;;;;;;5000798;28;20203;-83
2023/03/30 04:21:22;;;;;;;6.63;3.15;;;19.50;47.30;;;;;;5047512;28;20203;-82
2023/03/30 04:24:04;;;;;;;5.22;3.13;;;19.50;47.60;;;;;;5036938;28;20681;-83
2023/03/30 04:26:50;;;;;;;5.57;3.10;;;19.50;47.80;;;;;;5055086;28;20727;-82
2023/03/30 04:29:41;;;;;;;5.60;2.90;;;19.40;47.70;;;;;;5035348;28;20200;-83
2023/03/30 04:32:40;;;;;;;5.63;3.20;;;19.40;47.70;;;;;;5053763;28;20270;-81
2023/03/30 04:35:33;;;;;;;4.38;2.67;;;19.40;47.90;;;;;;5051280;28;20670;-81
2023/03/30 04:38:21;;;;;;;5.22;2.95;;;19.40;47.80;;;;;;5038364;28;20187;-85
2023/03/30 04:41:08;;;;;;;5.47;3.00;;;19.40;48.20;;;;;;5037997;28;20285;-84
2023/03/30 04:44:06;;;;;;;6.65;3.05;;;19.40;48.30;;;;;;5037008;28;20762;-85
2023/03/30 04:46:59;;;;;;;7.38;3.20;;;19.40;48.70;;;;;;5037870;28;20215;-84
2023/03/30 04:49:52;;;;;;;5.93;2.90;;;19.40;49.00;;;;;;5040262;28;20198;-85
2023/03/30 04:52:38;;;;;;;4.32;2.70;;;19.40;49.10;;;;;;5055454;28;20213;-85
2023/03/30 04:55:08;;;;;;;5.38;3.03;;;19.40;49.10;;;;;;5054507;28;20231;-85
2023/03/30 04:57:54;;;;;;;5.13;2.60;;;19.30;48.90;;;;;;5054708;28;20277;-85
2023/03/30 05:00:53;;;;;;;6.20;3.08;;;19.40;49.30;;;;;;5037709;28;20357;-85
2023/03/30 05:03:43;;;;;;;5.18;2.80;;;19.30;49.20;;;;;;5027970;28;20254;-85
2023/03/30 05:06:29;;;;;;;7.05;3.28;;;19.40;49.20;;;;;;5056830;28;20290;-85
2023/03/30 05:09:16;;;;;;;7.13;3.00;;;19.30;49.20;;;;;;5039887;28;20217;-85
2023/03/30 05:12:20;;;;;;;4.80;2.75;;;19.30;49.50;;;;;;4945781;29;20197;-85
2023/03/30 05:14:54;;;;;;;7.22;3.15;;;19.30;49.50;;;;;;5024594;28;20558;-84
2023/03/30 05:17:37;;;;;;;5.38;2.80;;;19.30;49.60;;;;;;5064783;28;20219;-83
2023/03/30 05:20:20;;;;;;;6.15;2.60;;;19.30;49.40;;;;;;5070962;28;20257;-84
2023/03/30 05:23:05;;;;;;;4.03;2.55;;;19.30;49.40;;;;;;5069894;28;20683;-84
2023/03/30 05:25:53;;;;;;;5.68;2.80;;;19.20;49.40;;;;;;5067241;28;20225;-84
2023/03/30 05:28:41;;;;;;;5.38;2.90;;;19.30;49.60;;;;;;5074377;28;20198;-84
2023/03/30 05:31:27;;;;;;;4.75;2.75;;;19.20;49.30;;;;;;5045907;28;20191;-82
2023/03/30 05:34:14;;;;;;;5.75;2.70;;;19.20;49.30;;;;;;5052088;28;20201;-84
2023/03/30 05:36:57;;;;;;;5.13;2.70;;;19.20;49.20;;;;;;5055513;28;20234;-84
2023/03/30 05:39:36;;;;;;;5.07;2.80;;;19.20;49.20;;;;;;5071279;28;20198;-83
2023/03/30 05:42:19;;;;;;;7.07;3.00;;;19.20;49.20;;;;;;5053007;28;20205;-83
2023/03/30 05:45:09;;;;;;;5.28;3.13;;;19.20;49.20;;;;;;5058863;28;20208;-80
2023/03/30 05:47:54;;;;;;;5.72;2.90;;;19.20;49.30;;;;;;5062349;28;20318;-80
2023/03/30 05:50:33;;;;;;;6.07;2.92;;;19.20;49.20;;;;;;5045078;28;20200;-80
2023/03/30 05:53:22;;;;;;;7.32;3.03;;;19.20;49.30;;;;;;5042228;28;20195;-80
2023/03/30 05:56:10;;;;;;;4.60;2.53;;;19.10;49.40;;;;;;5061418;28;20265;-79
2023/03/30 05:59:04;;;;;;;7.13;2.72;;;19.20;49.40;;;;;;5040736;28;20676;-80
2023/03/30 06:01:49;;;;;;;5.38;2.70;;;19.20;49.50;;;;;;5070643;28;20259;-80
2023/03/30 06:04:16;;;;;;;4.95;2.63;;;19.20;49.60;;;;;;5046106;28;20223;-81
2023/03/30 06:06:43;;;;;;;9.18;2.67;;;19.10;49.30;;;;;;5041015;28;20224;-81
2023/03/30 06:09:10;;;;;;;6.85;3.10;;;19.30;49.20;;;;;;5040249;28;20242;-81
2023/03/30 06:11:37;;;;;;;5.72;3.10;;;19.20;49.70;;;;;;5041683;28;20202;-80
2023/03/30 06:14:15;;;;;;;5.00;3.03;;;19.20;49.20;;;;;;5055912;28;20191;-80
2023/03/30 06:16:50;;;;;;;6.72;2.80;;;19.30;49.00;;;;;;5058034;28;20203;-80
2023/03/30 06:21:57;;;;;;;5.07;2.70;;;19.50;48.70;;;;;;5013345;28;20232;-83
2023/03/30 06:24:42;;;;;;;3.78;2.40;;;19.40;48.60;;;;;;5000132;28;20209;-82
2023/03/30 06:27:10;;;;;;;7.70;2.80;;;19.50;48.60;;;;;;5011433;28;20223;-83
2023/03/30 06:29:37;;;;;;;5.70;2.88;;;19.60;48.50;;;;;;5020162;28;20200;-83
2023/03/30 06:32:06;;;;;;;5.53;2.88;;;19.60;48.50;;;;;;5020254;28;20208;-84
2023/03/30 06:35:02;;;;;;;6.03;2.63;;;19.60;48.50;;;;;;5017921;28;20268;-83
2023/03/30 06:37:30;;;;;;;5.22;2.65;;;19.50;48.70;;;;;;5003254;28;20224;-84
2023/03/30 06:39:57;;;;;;;5.18;2.50;;;19.50;48.70;;;;;;5000857;28;20193;-83
2023/03/30 06:42:26;;;;;;;3.30;2.33;;;19.40;48.90;;;;;;5000104;28;20201;-83
2023/03/30 06:45:15;;;;;;;7.80;2.83;;;19.40;49.00;;;;;;5000599;28;20232;-84
2023/03/30 06:47:44;;;;;;;5.10;2.50;;;19.40;49.10;;;;;;4983751;28;20568;-84
2023/03/30 06:50:13;;;;;;;5.03;2.53;;;19.50;49.00;;;;;;4984080;28;20189;-84
2023/03/30 06:53:00;;;;;;;7.25;2.88;;;19.50;48.80;;;;;;5000642;28;20264;-83
2023/03/30 06:55:34;;;;;;;5.97;2.85;;;19.60;48.80;;;;;;5013960;28;20249;-84
2023/03/30 06:58:01;;;;;;;4.10;2.75;;;19.70;48.80;;;;;;5001140;28;20217;-83
2023/03/30 07:00:28;;;;;;;4.35;2.53;;;19.60;48.70;;;;;;5000148;28;20199;-84
2023/03/30 07:03:18;;;;;;;5.07;2.88;;;19.70;48.80;;;;;;5018210;28;20232;-84
2023/03/30 07:05:54;;;;;;;5.90;2.95;;;19.70;48.80;;;;;;5000964;28;20251;-84
2023/03/30 07:08:30;;;;;;;4.97;2.90;;;19.70;48.60;;;;;;5000129;28;20223;-84
2023/03/30 07:10:57;;;;;;;5.22;3.10;;;19.70;48.60;;;;;;4983831;28;20656;-84
2023/03/30 07:13:29;;;;;;;3.97;2.50;;;19.60;48.60;;;;;;5001041;28;20185;-83
2023/03/30 07:15:57;;;;;;;5.88;2.97;;;19.70;48.50;;;;;;4999995;28;20207;-83
2023/03/30 07:18:27;;;;;;;7.10;2.97;;;19.70;48.50;;;;;;4999586;28;20197;-83
2023/03/30 07:20:54;;;;;;;5.82;2.85;;;19.70;48.30;;;;;;4999447;28;20255;-83
2023/03/30 07:23:26;;;;;;;5.55;2.60;;;19.70;48.30;;;;;;5015906;28;20679;-83
2023/03/30 07:25:53;;;;;;;6.63;2.70;;;19.80;48.30;;;;;;4999886;28;20218;-83
2023/03/30 07:28:44;;;;;;;9.38;2.80;;;19.70;48.40;;;;;;5018126;28;20689;-83
2023/03/30 07:31:12;;;;;;;3.60;2.30;;;19.70;48.50;;;;;;4985088;28;20280;-83
2023/03/30 07:33:42;;;;;;;4.15;2.42;;;19.70;48.40;;;;;;5001381;28;20255;-83
2023/03/30 07:36:13;;;;;;;5.57;3.00;;;19.80;48.30;;;;;;5000433;28;20221;-83
2023/03/30 07:38:41;;;;;;;5.22;2.50;;;19.80;48.40;;;;;;5000849;28;20200;-83
2023/03/30 07:41:09;;;;;;;5.93;2.88;;;19.80;48.60;;;;;;5005159;28;20729;-83
2023/03/30 07:43:39;;;;;;;4.57;2.47;;;19.80;48.50;;;;;;4999619;28;20216;-83
2023/03/30 07:46:06;;;;;;;4.03;2.35;;;19.80;48.50;;;;;;5000452;28;20217;-83
2023/03/30 07:48:38;;;;;;;4.25;2.70;;;19.80;48.50;;;;;;4999087;28;20275;-83
2023/03/30 07:51:08;;;;;;;5.63;2.53;;;19.80;48.40;;;;;;4999814;28;20192;-83
2023/03/30 07:53:41;;;;;;;5.55;3.00;;;19.80;48.60;;;;;;5001949;28;20646;-83
2023/03/30 07:56:16;;;;;;;6.13;2.72;;;19.80;48.60;;;;;;5015474;28;20220;-83
2023/03/30 07:58:47;;;;;;;5.63;2.65;;;19.80;48.70;;;;;;5018540;28;20215;-83
2023/03/30 08:01:17;;;;;;;6.10;3.10;;;19.80;48.70;;;;;;5015252;28;20678;-83
2023/03/30 08:04:05;;;;;;;6.68;2.67;;;19.80;48.80;;;;;;5021036;28;20288;-83
2023/03/30 08:06:36;;;;;;;5.80;2.80;;;19.80;48.80;;;;;;5003200;28;20311;-83
2023/03/30 08:09:04;;;;;;;5.45;2.75;;;19.80;48.60;;;;;;4986248;28;20197;-83
2023/03/30 08:11:33;;;;;;;5.93;2.58;;;19.80;48.70;;;;;;5001966;28;20200;-83
2023/03/30 08:14:00;;;;;;;6.55;2.90;;;19.80;48.90;;;;;;4985707;28;20200;-83
2023/03/30 08:16:27;;;;;;;6.57;2.83;;;19.80;48.80;;;;;;4998977;28;20271;-83
2023/03/30 08:18:55;;;;;;;5.88;2.72;;;19.70;49.20;;;;;;4997996;28;20594;-83
2023/03/30 08:21:24;;;;;;;3.92;2.38;;;19.70;49.00;;;;;;4998167;28;20235;-83
2023/03/30 08:23:54;;;;;;;4.68;2.75;;;19.70;49.00;;;;;;4998499;28;20224;-83
2023/03/30 08:26:22;;;;;;;3.70;2.13;;;19.60;49.00;;;;;;4981812;28;20311;-83
2023/03/30 08:28:49;;;;;;;3.92;2.60;;;19.70;48.90;;;;;;4998042;28;20193;-83
2023/03/30 08:31:17;;;;;;;5.32;2.50;;;19.80;48.90;;;;;;4998195;28;20558;-83
2023/03/30 08:33:44;;;;;;;5.03;2.58;;;19.80;48.80;;;;;;4997472;28;20255;-83
2023/03/30 08:36:12;;;;;;;5.50;2.63;;;19.80;48.70;;;;;;4997739;28;20223;-82
2023/03/30 08:38:39;;;;;;;4.82;2.33;;;19.90;48.70;;;;;;4997449;28;20618;-83
2023/03/30 08:41:38;;;;;;;4.63;2.63;;;19.90;48.50;;;;;;4997481;28;20223;-83
2023/03/30 08:44:06;;;;;;;4.63;2.60;;;19.90;48.30;;;;;;4997597;28;20209;-83
2023/03/30 08:46:33;;;;;;;5.03;2.50;;;19.90;48.40;;;;;;4997564;28;20248;-83
2023/03/30 08:49:01;;;;;;;3.38;2.30;;;20.00;48.70;;;;;;4997731;28;20566;-83
2023/03/30 08:51:29;;;;;;;4.93;2.70;;;20.00;48.40;;;;;;4997336;28;20196;-83
2023/03/30 08:53:57;;;;;;;4.43;2.53;;;20.00;48.50;;;;;;4997143;28;20208;-83
2023/03/30 08:56:27;;;;;;;3.83;2.38;;;20.00;48.50;;;;;;4997180;28;20239;-83
2023/03/30 08:58:59;;;;;;;5.28;2.35;;;20.00;48.60;;;;;;4997559;28;20228;-83
2023/03/30 09:01:29;;;;;;;3.30;2.20;;;20.00;48.80;;;;;;4983417;28;20201;-83
2023/03/30 09:04:02;;;;;;;3.17;2.10;;;19.90;48.80;;;;;;4982821;28;20216;-83
2023/03/30 09:06:36;;;;;;;2.72;2.08;;;19.90;49.00;;;;;;4999028;28;20220;-83
2023/03/30 09:09:04;;;;;;;4.03;2.40;;;19.90;48.90;;;;;;4984817;28;20227;-83
2023/03/30 09:11:33;;;;;;;5.38;1.98;;;20.00;48.50;;;;;;4998848;28;20258;-83
2023/03/30 09:14:01;;;;;;;3.28;2.25;;;20.00;48.60;;;;;;4998337;28;20200;-83
2023/03/30 09:16:33;;;;;;;3.88;2.10;;;19.90;48.40;;;;;;4998326;28;20255;-83
2023/03/30 09:19:00;;;;;;;3.45;2.10;;;20.00;48.70;;;;;;4999119;28;20193;-83
2023/03/30 09:21:28;;;;;;;2.63;2.13;;;20.00;48.60;;;;;;5001633;28;20292;-82
2023/03/30 09:23:56;;;;;;;2.97;2.25;;;20.00;48.60;;;;;;5002539;28;20221;-82
2023/03/30 09:26:27;;;;;;;4.22;2.20;;;20.00;48.50;;;;;;5002288;28;20314;-84
2023/03/30 09:28:58;;;;;;;3.47;2.35;;;20.00;48.30;;;;;;5001453;28;20200;-83
2023/03/30 09:31:28;;;;;;;3.78;2.00;;;20.00;48.40;;;;;;5002097;28;20197;-83
2023/03/30 09:33:58;;;;;;;4.00;2.30;;;20.00;48.40;;;;;;5001450;28;20656;-84
2023/03/30 09:36:26;;;;;;;3.80;2.22;;;20.00;48.30;;;;;;5002077;28;20228;-83
2023/03/30 09:38:54;;;;;;;3.50;2.28;;;20.00;48.40;;;;;;5002501;28;20272;-83
2023/03/30 09:41:34;;;;;;;5.45;2.53;;;20.00;48.50;;;;;;5001085;28;20197;-83
2023/03/30 09:44:03;;;;;;;3.65;2.25;;;20.00;48.30;;;;;;5001343;28;20213;-83
2023/03/30 09:46:30;;;;;;;3.58;2.30;;;20.00;48.30;;;;;;5000513;28;20602;-83
2023/03/30 09:49:11;;;;;;;3.20;1.88;;;20.00;48.20;;;;;;5018092;28;20230;-83
2023/03/30 09:51:39;;;;;;;3.97;2.10;;;20.00;48.40;;;;;;5000615;28;20267;-83
2023/03/30 09:54:07;;;;;;;2.90;2.10;;;20.00;48.30;;;;;;5000762;28;20252;-83
2023/03/30 09:56:36;;;;;;;2.60;1.80;;;20.00;48.30;;;;;;4985066;28;20652;-83
2023/03/30 09:59:19;;;;;;;5.88;2.50;;;20.00;48.30;;;;;;5001457;28;20189;-83
2023/03/30 10:01:47;;;;;;;3.25;2.38;;;20.00;48.40;;;;;;5000900;28;20201;-83
2023/03/30 10:04:16;;;;;;;3.53;1.90;;;20.00;48.50;;;;;;5000452;28;20226;-83
2023/03/30 10:06:47;;;;;;;2.80;2.03;;;20.00;48.50;;;;;;5000622;28;20224;-83
2023/03/30 10:09:15;;;;;;;3.00;2.00;;;20.10;48.40;;;;;;4984594;28;20224;-83
2023/03/30 10:11:44;;;;;;;3.78;2.10;;;20.00;48.30;;;;;;5001425;28;20200;-83
2023/03/30 10:14:25;;;;;;;2.70;1.95;;;20.00;48.40;;;;;;5001752;28;20239;-83
2023/03/30 10:16:53;;;;;;;2.95;1.90;;;20.10;48.60;;;;;;5001809;28;20246;-83
2023/03/30 10:19:20;;;;;;;2.78;2.05;;;20.10;48.30;;;;;;5000942;28;20656;-83
2023/03/30 10:21:48;;;;;;;2.08;1.70;;;20.10;48.30;;;;;;5001571;28;20196;-83
2023/03/30 10:24:22;;;;;;;2.47;1.83;;;20.10;48.20;;;;;;5000505;28;20590;-83
2023/03/30 10:26:51;;;;;;;2.58;1.73;;;20.10;48.30;;;;;;5018311;28;20217;-83
2023/03/30 10:29:20;;;;;;;2.45;2.03;;;20.10;48.40;;;;;;5000635;28;20276;-83
2023/03/30 10:31:50;;;;;;;3.10;1.90;;;20.20;48.30;;;;;;4999056;28;20255;-83
2023/03/30 10:34:18;;;;;;;2.53;1.70;;;20.20;48.20;;;;;;5000450;28;20291;-83
2023/03/30 10:36:46;;;;;;;3.60;1.90;;;20.10;48.50;;;;;;4999672;28;20233;-83
2023/03/30 10:39:15;;;;;;;2.70;2.00;;;20.10;48.50;;;;;;4999567;28;20255;-83
2023/03/30 10:41:42;;;;;;;3.20;1.90;;;20.10;48.80;;;;;;4999503;28;20227;-83
2023/03/30 10:44:20;;;;;;;3.88;2.13;;;20.10;48.50;;;;;;4999663;28;20742;-83
2023/03/30 10:46:49;;;;;;;3.42;1.90;;;20.10;48.60;;;;;;4999670;28;20243;-83
2023/03/30 10:49:20;;;;;;;4.38;2.10;;;20.10;48.60;;;;;;4999682;28;20663;-82
2023/03/30 10:51:53;;;;;;;2.20;2.00;;;20.10;48.60;;;;;;4999985;28;20193;-82
2023/03/30 10:54:23;;;;;;;3.22;1.90;;;20.20;48.50;;;;;;4999803;28;20185;-82
2023/03/30 10:56:51;;;;;;;2.65;1.77;;;20.20;48.40;;;;;;4999934;28;20279;-82
2023/03/30 10:59:37;;;;;;;2.22;1.70;;;20.20;48.10;;;;;;5000256;28;20233;-83
2023/03/30 11:02:25;;;;;;;3.17;2.08;;;20.20;48.30;;;;;;5001119;28;20615;-83
2023/03/30 11:04:56;;;;;;;2.20;1.85;;;20.10;49.00;;;;;;5000772;28;20220;-83
2023/03/30 11:07:25;;;;;;;2.70;2.00;;;20.10;48.30;;;;;;4999234;28;20231;-83
2023/03/30 11:09:53;;;;;;;1.70;1.60;;;20.10;48.10;;;;;;4999376;28;20675;-83
2023/03/30 11:12:21;;;;;;;2.40;1.85;;;20.20;47.90;;;;;;4999420;28;20232;-83
2023/03/30 11:14:50;;;;;;;2.78;2.00;;;20.20;47.70;;;;;;5001280;28;20208;-83
2023/03/30 11:17:19;;;;;;;2.25;1.80;;;20.20;47.50;;;;;;5000571;28;20279;-83
2023/03/30 11:19:49;;;;;;;3.42;2.05;;;20.30;47.50;;;;;;4999395;28;20206;-83
2023/03/30 11:22:20;;;;;;;4.40;1.80;;;20.40;47.50;;;;;;4983373;28;20702;-83
2023/03/30 11:24:47;;;;;;;2.33;1.80;;;20.40;47.60;;;;;;4983574;28;20205;-83
2023/03/30 11:27:16;;;;;;;3.00;1.90;;;20.40;47.50;;;;;;4999701;28;20221;-83
2023/03/30 11:29:45;;;;;;;2.22;1.90;;;20.40;47.10;;;;;;4999868;28;20219;-83
2023/03/30 11:32:20;;;;;;;2.88;1.80;;;20.50;47.30;;;;;;4982599;28;20197;-83
2023/03/30 11:34:53;;;;;;;2.20;1.88;;;20.50;47.20;;;;;;4982600;28;20189;-83
2023/03/30 11:37:26;;;;;;;2.17;2.00;;;20.60;47.30;;;;;;4999306;28;20217;-83
2023/03/30 11:39:56;;;;;;;3.20;1.90;;;20.50;47.20;;;;;;4998812;28;20216;-83
2023/03/30 11:42:25;;;;;;;2.08;1.77;;;20.60;47.20;;;;;;4999486;28;20189;-83
2023/03/30 11:44:52;;;;;;;2.13;1.88;;;20.60;47.20;;;;;;4999108;28;20303;-83
2023/03/30 11:47:40;;;;;;;2.20;2.00;;;20.70;47.20;;;;;;4999156;28;20239;-83
2023/03/30 11:50:13;;;;;;;1.88;1.73;;;20.70;47.10;;;;;;4998793;28;20188;-83
2023/03/30 11:52:43;;;;;;;2.92;1.80;;;20.70;47.10;;;;;;4998824;28;20216;-83
2023/03/30 11:55:25;;;;;;;2.13;1.83;;;20.70;46.80;;;;;;4998488;28;20192;-83
2023/03/30 11:57:57;;;;;;;3.13;1.90;;;20.80;46.90;;;;;;4998832;28;20436;-83
2023/03/30 12:00:53;;;;;;;1.90;1.70;;;20.80;47.10;;;;;;4998686;28;20697;-83
2023/03/30 12:03:39;;;;;;;3.25;2.00;;;20.70;46.90;;;;;;5010199;28;20221;-83
2023/03/30 12:06:15;;;;;;;3.30;1.63;;;20.80;46.70;;;;;;4998668;28;20240;-83
2023/03/30 12:08:59;;;;;;;2.58;1.90;;;20.80;47.00;;;;;;4999344;28;20396;-83
2023/03/30 12:11:30;;;;;;;2.58;1.83;;;20.80;47.10;;;;;;4982148;28;20200;-83
2023/03/30 12:13:57;;;;;;;3.22;2.00;;;20.80;46.80;;;;;;5015259;28;20535;-83
2023/03/30 12:16:27;;;;;;;3.33;2.08;;;20.80;46.70;;;;;;4998616;28;20212;-83
2023/03/30 12:19:02;;;;;;;2.30;2.00;;;20.90;46.90;;;;;;4998478;28;20232;-83
2023/03/30 12:21:32;;;;;;;2.70;1.80;;;20.90;46.90;;;;;;4999208;28;20196;-83
2023/03/30 12:24:05;;;;;;;2.70;1.67;;;20.90;46.70;;;;;;4998888;28;20279;-83
2023/03/30 12:26:33;;;;;;;2.67;2.15;;;20.90;46.70;;;;;;4997957;28;20235;-83
2023/03/30 12:29:09;;;;;;;2.42;2.03;;;20.90;47.00;;;;;;5009651;28;20189;-83
2023/03/30 12:31:51;;;;;;;3.20;2.08;;;20.90;46.70;;;;;;5012409;28;20215;-83
2023/03/30 12:34:18;;;;;;;2.53;1.83;;;20.90;46.90;;;;;;5012756;28;20188;-83
2023/03/30 12:36:48;;;;;;;2.08;1.90;;;20.90;46.50;;;;;;5009776;28;20212;-83
2023/03/30 12:39:20;;;;;;;3.30;2.10;;;20.90;46.50;;;;;;4998569;28;20675;-83
2023/03/30 12:41:49;;;;;;;3.33;2.00;;;20.90;46.50;;;;;;5003401;28;20527;-83
2023/03/30 12:44:24;;;;;;;2.33;1.90;;;20.90;46.50;;;;;;5003535;28;20670;-83
2023/03/30 12:46:58;;;;;;;2.75;1.80;;;21.00;46.60;;;;;;5004133;28;20224;-83
2023/03/30 12:49:32;;;;;;;2.45;1.77;;;21.00;46.60;;;;;;5002139;28;20703;-83
2023/03/30 12:52:08;;;;;;;2.20;1.60;;;21.00;46.40;;;;;;4997748;28;20189;-83
2023/03/30 12:54:59;;;;;;;2.35;1.85;;;21.00;46.40;;;;;;4997166;28;20617;-83
2023/03/30 12:57:41;;;;;;;2.50;1.73;;;21.00;46.30;;;;;;4998007;28;20248;-83
2023/03/30 13:00:22;;;;;;;2.85;1.80;;;21.00;46.30;;;;;;4997875;28;20667;-83
2023/03/30 13:02:58;;;;;;;2.17;1.65;;;21.10;46.20;;;;;;4998466;28;20189;-83
2023/03/30 13:05:30;;;;;;;2.10;1.80;;;21.10;46.30;;;;;;4982604;28;20212;-83
2023/03/30 13:08:01;;;;;;;2.38;1.90;;;21.20;46.30;;;;;;4982448;28;20224;-83
2023/03/30 13:10:41;;;;;;;2.72;1.77;;;21.10;46.00;;;;;;4997213;28;20192;-83
2023/03/30 13:13:17;;;;;;;2.55;1.83;;;21.10;46.10;;;;;;4997974;28;20239;-83
2023/03/30 13:15:47;;;;;;;2.15;1.73;;;21.10;45.90;;;;;;4997856;28;20609;-83
2023/03/30 13:18:34;;;;;;;2.70;1.90;;;21.20;46.00;;;;;;5000217;28;20206;-83
2023/03/30 13:21:15;;;;;;;2.20;2.00;;;21.20;46.20;;;;;;4998462;28;20208;-83
2023/03/30 13:23:45;;;;;;;2.13;1.92;;;21.20;46.00;;;;;;4998954;28;20204;-83
2023/03/30 13:26:24;;;;;;;2.50;1.73;;;21.20;46.00;;;;;;4998275;28;20315;-83